createdAt,value
2023-03-23T15:58:17.008Z,6.01
2023-03-23T15:59:38.777Z,6.43
2023-03-23T16:01:07.489Z,4.60
2023-03-23T16:02:43.722Z,6.13
2023-03-23T16:04:27.693Z,7.23
2023-03-23T16:06:11.553Z,8.27
2023-03-23T16:07:52.273Z,7.24
2023-03-23T16:09:17.284Z,6.48
2023-03-23T16:10:46.254Z,4.75
2023-03-23T16:12:17.781Z,5.52
2023-03-23T16:13:51.439Z,7.09
2023-03-23T16:15:13.468Z,4.23
2023-03-23T16:16:50.952Z,6.10
2023-03-23T16:18:33.050Z,5.20
2023-03-23T16:19:54.768Z,4.91
2023-03-23T16:21:32.517Z,5.02
2023-03-23T16:23:01.823Z,4.52
2023-03-23T16:24:23.809Z,6.15
2023-03-23T16:25:48.122Z,4.83
2023-03-23T16:27:12.737Z,5.35
2023-03-23T16:28:36.644Z,4.64
2023-03-23T16:30:12.498Z,5.71
2023-03-23T16:31:36.047Z,6.87
2023-03-23T16:33:21.044Z,5.05
2023-03-23T16:34:42.311Z,5.40
2023-03-23T16:36:04.241Z,5.68
2023-03-23T16:37:37.763Z,5.56
2023-03-23T16:39:31.381Z,5.01
2023-03-23T16:41:24.876Z,5.80
2023-03-23T16:42:58.343Z,6.21
2023-03-23T16:44:31.546Z,6.89
2023-03-23T16:45:53.940Z,6.06
2023-03-23T16:47:35.911Z,5.44
2023-03-23T16:48:57.831Z,6.34
2023-03-23T16:50:33.274Z,7.98
2023-03-23T16:52:18.661Z,6.20
2023-03-23T16:53:51.759Z,5.98
2023-03-23T16:55:13.594Z,6.35
2023-03-23T16:56:49.952Z,6.44
2023-03-23T17:00:35.189Z,6.16
2023-03-23T17:02:11.297Z,8.15
2023-03-23T17:03:47.047Z,7.12
2023-03-23T17:05:22.747Z,6.70
2023-03-23T17:07:06.023Z,9.17
2023-03-23T17:08:40.598Z,6.28
2023-03-23T17:10:13.942Z,6.30
2023-03-23T17:11:49.345Z,6.42
2023-03-23T17:13:25.329Z,5.86
2023-03-23T17:15:09.930Z,5.62
2023-03-23T17:16:43.443Z,6.07
2023-03-23T17:18:28.532Z,6.79
2023-03-23T17:20:16.486Z,6.67
2023-03-23T17:21:49.931Z,6.90
2023-03-23T17:23:32.309Z,7.12
2023-03-23T17:24:57.352Z,7.17
2023-03-23T17:26:40.763Z,6.54
2023-03-23T17:28:05.123Z,7.30
2023-03-23T17:29:40.135Z,6.18
2023-03-23T17:31:13.473Z,6.58
2023-03-23T17:32:37.348Z,7.47
2023-03-23T17:34:13.246Z,7.28
2023-03-23T17:36:06.931Z,6.25
2023-03-23T17:37:47.897Z,6.66
2023-03-23T17:39:32.942Z,6.49
2023-03-23T17:41:17.076Z,5.47
2023-03-23T17:42:41.129Z,6.06
2023-03-23T17:44:22.570Z,5.47
2023-03-23T17:45:58.191Z,5.84
2023-03-23T17:47:43.259Z,6.61
2023-03-23T17:49:16.314Z,6.16
2023-03-23T17:51:01.336Z,6.02
2023-03-23T17:52:46.049Z,6.94
2023-03-23T17:54:31.027Z,6.26
2023-03-23T17:58:27.043Z,6.89
2023-03-23T18:00:12.156Z,7.54
2023-03-23T18:02:01.525Z,8.33
2023-03-23T18:03:25.988Z,10.52
2023-03-23T18:05:07.861Z,8.65
2023-03-23T18:06:49.864Z,7.85
2023-03-23T18:08:30.575Z,9.59
2023-03-23T18:10:16.113Z,8.22
2023-03-23T18:12:09.730Z,6.89
2023-03-23T18:13:54.417Z,7.17
2023-03-23T18:15:48.465Z,7.92
2023-03-23T18:17:22.464Z,7.26
2023-03-23T18:18:47.047Z,8.18
2023-03-23T18:20:13.681Z,7.54
2023-03-23T18:21:40.501Z,8.40
2023-03-23T18:23:04.816Z,7.84
2023-03-23T18:24:50.086Z,7.83
2023-03-23T18:26:11.908Z,7.18
2023-03-23T18:27:45.363Z,7.35
2023-03-23T18:29:20.954Z,6.90
2023-03-23T18:30:50.032Z,6.39
2023-03-23T18:32:39.270Z,6.86
2023-03-23T18:34:03.714Z,7.49
2023-03-23T18:35:30.550Z,9.35
2023-03-23T18:36:57.185Z,9.50
2023-03-23T18:38:32.982Z,9.36
2023-03-23T18:40:07.091Z,8.36
2023-03-23T18:41:55.809Z,8.62
2023-03-23T18:43:30.556Z,7.84
2023-03-23T18:45:16.425Z,8.27
2023-03-23T18:48:45.668Z,8.11
2023-03-23T18:50:21.728Z,8.36
2023-03-23T18:52:07.069Z,11.82
2023-03-23T18:53:31.107Z,11.56
2023-03-23T18:55:16.333Z,11.28
2023-03-23T18:56:38.203Z,12.68
2023-03-23T18:58:00.377Z,12.69
2023-03-23T18:59:23.982Z,10.15
2023-03-23T19:00:48.137Z,12.06
2023-03-23T19:02:13.134Z,14.22
2023-03-23T19:03:35.185Z,12.81
2023-03-23T19:05:07.629Z,11.58
2023-03-23T19:06:37.112Z,14.06
2023-03-23T19:08:06.730Z,24.43
2023-03-23T19:09:48.955Z,29.15
2023-03-23T19:11:25.209Z,38.00
2023-03-23T19:12:48.491Z,31.80
2023-03-23T19:14:13.103Z,23.10
2023-03-23T19:15:50.439Z,31.80
2023-03-23T19:17:25.992Z,38.12
2023-03-23T19:19:08.501Z,39.48
2023-03-23T19:21:13.459Z,18.54
2023-03-23T19:22:48.296Z,18.84
2023-03-23T19:24:34.318Z,17.76
2023-03-23T19:25:58.884Z,18.20
2023-03-23T19:27:32.619Z,15.10
2023-03-23T19:30:23.901Z,14.74
2023-03-23T19:31:48.219Z,14.45
2023-03-23T19:33:33.079Z,17.07
2023-03-23T19:34:57.278Z,16.88
2023-03-23T19:36:19.077Z,13.78
2023-03-23T19:37:59.939Z,14.32
2023-03-23T19:39:29.059Z,14.39
2023-03-23T19:41:04.911Z,15.05
2023-03-23T19:42:37.879Z,15.03
2023-03-23T19:44:11.554Z,16.71
2023-03-23T19:45:45.272Z,17.05
2023-03-23T19:47:30.239Z,13.83
2023-03-23T19:49:10.669Z,13.88
2023-03-23T19:50:40.692Z,12.68
2023-03-23T19:52:13.592Z,12.19
2023-03-23T19:54:09.012Z,11.85
2023-03-23T19:55:51.387Z,17.34
2023-03-23T19:57:45.489Z,14.33
2023-03-23T19:59:26.215Z,15.67
2023-03-23T20:01:11.076Z,20.96
2023-03-23T20:02:35.183Z,13.69
2023-03-23T20:04:04.715Z,15.35
2023-03-23T20:05:53.314Z,15.77
2023-03-23T20:07:27.014Z,16.23
2023-03-23T20:09:01.291Z,12.02
2023-03-23T20:10:35.512Z,16.28
2023-03-23T20:12:21.248Z,11.79
2023-03-23T20:13:48.374Z,13.95
2023-03-23T20:15:33.579Z,10.44
2023-03-23T20:17:10.281Z,8.34
2023-03-23T20:19:00.340Z,7.09
2023-03-23T20:20:31.615Z,9.77
2023-03-23T20:22:07.399Z,9.07
2023-03-23T20:23:29.032Z,7.61
2023-03-23T20:25:02.483Z,7.24
2023-03-23T20:26:38.247Z,6.78
2023-03-23T20:28:00.363Z,6.54
2023-03-23T20:29:22.089Z,7.08
2023-03-23T20:30:46.145Z,5.94
2023-03-23T20:32:35.470Z,6.14
2023-03-23T20:34:03.319Z,7.19
2023-03-23T20:35:25.473Z,6.71
2023-03-23T20:36:50.358Z,7.43
2023-03-23T20:38:23.652Z,6.76
2023-03-23T20:39:57.820Z,5.66
2023-03-23T20:41:38.622Z,5.69
2023-03-23T20:43:15.266Z,6.11
2023-03-23T20:44:39.592Z,6.28
2023-03-23T20:46:13.238Z,5.67
2023-03-23T20:47:46.709Z,4.80
2023-03-23T20:49:20.495Z,6.88
2023-03-23T20:51:06.176Z,5.59
2023-03-23T20:52:27.909Z,5.26
2023-03-23T20:54:08.426Z,7.10
2023-03-23T20:55:33.145Z,7.63
2023-03-23T20:57:07.634Z,9.28
2023-03-23T20:58:39.420Z,7.44
2023-03-23T21:00:12.514Z,8.54
2023-03-23T21:01:36.706Z,12.12
2023-03-23T21:02:58.827Z,11.16
2023-03-23T21:04:28.533Z,13.57
2023-03-23T21:05:54.960Z,14.20
2023-03-23T21:07:27.374Z,10.48
2023-03-23T21:08:51.766Z,10.37
2023-03-23T21:10:25.521Z,9.98
2023-03-23T21:11:49.920Z,10.36
2023-03-23T21:13:24.295Z,12.00
2023-03-23T21:14:57.547Z,7.95
2023-03-23T21:16:24.282Z,8.29
2023-03-23T21:18:09.721Z,9.12
2023-03-23T21:19:34.056Z,12.25
2023-03-23T21:20:57.797Z,10.66
2023-03-23T21:22:31.360Z,10.26
2023-03-23T21:23:53.326Z,6.56
2023-03-23T21:25:34.157Z,8.44
2023-03-23T21:27:10.958Z,8.43
2023-03-23T21:28:32.694Z,8.32
2023-03-23T21:30:17.434Z,11.74
2023-03-23T21:31:39.524Z,7.32
2023-03-23T21:33:15.252Z,8.44
2023-03-23T21:34:50.632Z,6.43
2023-03-23T21:36:14.609Z,11.78
2023-03-23T21:37:43.745Z,10.02
2023-03-23T21:39:10.100Z,8.58
2023-03-23T21:40:43.552Z,10.12
2023-03-23T21:42:06.774Z,8.06
2023-03-23T21:43:30.777Z,7.28
2023-03-23T21:45:12.056Z,12.92
2023-03-23T21:46:49.831Z,11.96
2023-03-23T21:48:35.265Z,9.42
2023-03-23T21:50:09.093Z,9.52
2023-03-23T21:51:47.112Z,11.01
2023-03-23T21:53:32.772Z,9.91
2023-03-23T21:54:54.678Z,9.61
2023-03-23T21:56:16.569Z,10.05
2023-03-23T21:57:58.664Z,9.03
2023-03-23T21:59:27.802Z,9.38
2023-03-23T22:01:10.926Z,9.63
2023-03-23T22:02:47.570Z,11.46
2023-03-23T22:04:11.990Z,11.83
2023-03-23T22:05:33.783Z,12.30
2023-03-23T22:06:56.916Z,11.26
2023-03-23T22:08:20.211Z,11.03
2023-03-23T22:09:50.204Z,11.51
2023-03-23T22:11:19.715Z,10.80
2023-03-23T22:12:41.660Z,10.20
2023-03-23T22:14:05.835Z,10.54
2023-03-23T22:15:47.141Z,11.31
2023-03-23T22:17:09.035Z,10.52
2023-03-23T22:19:00.509Z,11.64
2023-03-23T22:20:25.012Z,10.47
2023-03-23T22:21:46.904Z,11.98
2023-03-23T22:23:20.292Z,11.68
2023-03-23T22:25:05.904Z,10.85
2023-03-23T22:26:27.681Z,12.15
2023-03-23T22:27:52.471Z,12.12
2023-03-23T22:29:17.169Z,11.12
2023-03-23T22:30:38.635Z,11.33
2023-03-23T22:32:02.464Z,12.22
2023-03-23T22:33:31.630Z,10.63
2023-03-23T22:34:55.582Z,12.61
2023-03-23T22:36:17.613Z,13.23
2023-03-23T22:37:51.291Z,14.65
2023-03-23T22:39:12.855Z,12.70
2023-03-23T22:40:42.480Z,11.25
2023-03-23T22:42:15.793Z,10.74
2023-03-23T22:43:44.894Z,10.56
2023-03-23T22:45:09.682Z,9.69
2023-03-23T22:46:43.371Z,9.35
2023-03-23T22:48:07.895Z,10.09
2023-03-23T22:49:43.395Z,8.83
2023-03-23T22:51:14.888Z,8.37
2023-03-23T22:52:50.379Z,7.76
2023-03-23T22:54:19.563Z,7.79
2023-03-23T22:55:52.990Z,8.05
2023-03-23T22:57:26.743Z,8.85
2023-03-23T22:59:02.705Z,11.75
2023-03-23T23:00:35.959Z,11.07
2023-03-23T23:02:09.573Z,9.03
2023-03-23T23:03:52.446Z,9.42
2023-03-23T23:05:14.041Z,11.85
2023-03-23T23:06:53.571Z,10.51
2023-03-23T23:08:33.191Z,8.83
2023-03-23T23:09:55.324Z,8.88
2023-03-23T23:11:19.360Z,8.43
2023-03-23T23:12:42.307Z,9.21
2023-03-23T23:14:15.628Z,9.26
2023-03-23T23:15:55.890Z,19.04
2023-03-23T23:17:43.521Z,11.12
2023-03-23T23:19:17.452Z,9.39
2023-03-23T23:20:51.116Z,11.42
2023-03-23T23:22:24.380Z,10.12
2023-03-23T23:23:58.114Z,11.03
2023-03-23T23:25:21.005Z,12.69
2023-03-23T23:26:49.752Z,12.45
2023-03-23T23:28:13.360Z,9.38
2023-03-23T23:29:44.631Z,8.48
2023-03-23T23:31:08.711Z,10.42
2023-03-23T23:32:44.567Z,8.91
2023-03-23T23:34:06.766Z,10.81
2023-03-23T23:35:49.462Z,10.88
2023-03-23T23:37:18.790Z,11.15
2023-03-23T23:38:55.450Z,9.50
2023-03-23T23:40:28.983Z,8.90
2023-03-23T23:42:02.405Z,8.75
2023-03-23T23:43:28.374Z,12.70
2023-03-23T23:45:09.793Z,18.66
2023-03-23T23:46:31.646Z,16.12
2023-03-23T23:48:05.408Z,14.49
2023-03-23T23:49:50.365Z,15.62
2023-03-23T23:51:16.406Z,14.64
2023-03-23T23:52:41.535Z,13.41
2023-03-23T23:54:05.981Z,14.27
2023-03-23T23:55:27.792Z,12.70
2023-03-23T23:57:01.566Z,11.56
2023-03-23T23:58:38.376Z,11.15
